• Join FlightAware (Why Join?)
  • Login
  • US Flag 
01:36AM EDT


 

Airport Tracker/Info


-or-


 

Live Flight TrackerFlight Track Log ✈ ASQ5025 ✈ 26-Apr-2013 ✈ KLGA - KBTV

Flight Track Log - Related Links

Times and Time Zones

All times are in EDT time to prevent confusion due to time zone crossing. See the ASQ5025 flight status page for this flight to view local times or setup timezone preferences in your user account.

Time Position Orientation Groundspeed Altitude Reporting Facility
EDT Latitude Longitude Course Direction KTS MPH feet Rate Location/Type
09:37AM 40.8000 -73.8500 30° Northeast 162 186 1,800  Level New York TRACON
09:39AM 40.8942 -73.7553 37° Northeast 244 281 6,300 2,460 Climbing Boston Center
09:40AM 40.9472 -73.6822 46° Northeast 265 305 8,900 2,700 Climbing Boston Center
09:41AM 41.0292 -73.6178 31° Northeast 289 333 11,800 2,100 Climbing Boston Center
09:42AM 41.1028 -73.5667 28° Northeast 322 371 13,200 1,500 Climbing Boston Center
09:43AM 41.1103 -73.6013 30° Northeast  Level FlightAware Approximate
09:43AM 41.2097 -73.4997 25° Northeast 362 417 14,800  Level Boston Center
09:44AM 41.2997 -73.4347 28° Northeast 388 447 16,200 1,500 Climbing Boston Center
09:45AM 41.4131 -73.3589 27° Northeast 407 468 17,800 1,260 Climbing Boston Center
09:46AM 41.5075 -73.2800 32° Northeast 425 489 18,800 1,260 Climbing Boston Center
09:47AM 41.6042 -73.1564 44° Northeast 432 497 20,400 1,500 Climbing Boston Center
09:48AM 41.7086 -73.1269 12° North 412 474 21,800 1,500 Climbing Boston Center
09:49AM 41.8397 -73.1283 360° North 418 481 23,400 1,500 Climbing Boston Center
09:50AM 41.9439 -73.1267 North 417 480 24,800 1,500 Climbing Boston Center
09:51AM 42.0731 -73.1281 360° North 417 480 26,500 1,080 Climbing Boston Center
09:52AM 42.1794 -73.1292 360° North 417 480 27,000 240 Climbing Boston Center
09:53AM 42.3150 -73.1308 359° North 429 494 27,000  Level Boston Center
09:54AM 42.4358 -73.1294 360° North 434 499 27,000  Level Boston Center
09:55AM 42.5567 -73.1278 North 434 499 27,000  Level Boston Center
09:56AM 42.6631 -73.1347 357° North 434 499 27,000  Level Boston Center
09:57AM 42.7964 -73.1361 360° North 434 499 27,000  Level Boston Center
09:58AM 42.9067 -73.1375 359° North 434 499 27,000 -420 Level Boston Center
09:59AM 43.0403 -73.1389 360° North 434 499 26,200 -1,320 Descending Boston Center
10:00AM 43.1486 -73.1400 360° North 434 499 24,400 -1,680 Descending Boston Center
10:01AM 43.2819 -73.1417 359° North 440 506 22,900 -1,800 Descending Boston Center
10:02AM 43.3944 -73.1400 North 440 506 20,900 -2,100 Descending Boston Center
10:03AM 43.5133 -73.1414 360° North 435 501 18,700 -1,980 Descending Boston Center
10:04AM 43.6258 -73.1456 358° North 427 491 17,000 -2,100 Descending Boston Center
10:05AM 43.7467 -73.1469 360° North 400 460 14,600 -2,340 Descending Boston Center
10:06AM 43.8569 -73.1483 359° North 395 455 12,400 -1,800 Descending Boston Center
10:07AM 43.9653 -73.1497 359° North 401 461 11,100 -720 Descending Boston Center
10:08AM 44.0717 -73.1508 360° North 385 443 11,000 -300 Descending Boston Center
10:09AM 44.1531 -73.1403 North 330 380 10,500 -1,500 Descending Boston Center
10:10AM 44.2136 -73.1178 15° North 262 302 8,000 -2,400 Descending Boston Center
10:11AM 44.2742 -73.0836 22° Northeast 236 272 5,700 -1,980 Descending Boston Center
10:12AM 44.3244 -73.0378 33° Northeast 218 251 4,100 -1,200 Descending Boston Center
10:13AM 44.3806 -73.0267 North 199 229 3,300 -780 Descending Boston Center
10:14AM 44.4181 -73.0678 322° Northwest 167 192 2,600 -960 Descending Boston Center
10:15AM 44.4428 -73.1058 312° West 146 168 1,400 4,200 Descending Boston Center
10:16AM 44.4675 -73.1497 308° West 129 148 11,000 4,800 Climbing Boston Center
10:17AM 44.4861 -73.1761 315° West 108 124 11,000  Level Boston Center
10:18AM 44.5067 -73.2056 314° West 108 124 11,000  Level Boston Center
10:19AM 44.5272 -73.2350 314° West 108 124 11,000  Level Boston Center
10:21AM 44.4667 -73.1500 133° Southeast  Level FlightAware Approximate